sensor_id;sensor_type;location;lat;lon;timestamp;P1;durP1;ratioP1;P2;durP2;ratioP2
13234;SDS011;6683;48.506;9.050;2023-08-06T00:01:23;2.03;;;1.93;;
13234;SDS011;6683;48.506;9.050;2023-08-06T00:04:27;1.90;;;1.70;;
13234;SDS011;6683;48.506;9.050;2023-08-06T00:07:29;1.90;;;1.80;;
13234;SDS011;6683;48.506;9.050;2023-08-06T00:10:31;2.00;;;1.80;;
13234;SDS011;6683;48.506;9.050;2023-08-06T00:13:33;1.70;;;1.60;;
13234;SDS011;6683;48.506;9.050;2023-08-06T00:16:35;2.20;;;2.00;;
13234;SDS011;6683;48.506;9.050;2023-08-06T00:19:38;3.00;;;1.90;;
13234;SDS011;6683;48.506;9.050;2023-08-06T00:22:40;2.23;;;2.00;;
13234;SDS011;6683;48.506;9.050;2023-08-06T00:25:42;2.17;;;1.97;;
13234;SDS011;6683;48.506;9.050;2023-08-06T00:28:45;2.13;;;1.80;;
13234;SDS011;6683;48.506;9.050;2023-08-06T00:31:47;2.83;;;2.00;;
13234;SDS011;6683;48.506;9.050;2023-08-06T00:34:50;4.20;;;2.00;;
13234;SDS011;6683;48.506;9.050;2023-08-06T00:37:52;2.50;;;2.30;;
13234;SDS011;6683;48.506;9.050;2023-08-06T00:40:54;1.80;;;1.70;;
13234;SDS011;6683;48.506;9.050;2023-08-06T00:43:56;2.20;;;2.00;;
13234;SDS011;6683;48.506;9.050;2023-08-06T00:46:58;1.90;;;1.80;;
13234;SDS011;6683;48.506;9.050;2023-08-06T00:50:02;2.40;;;2.00;;
13234;SDS011;6683;48.506;9.050;2023-08-06T00:53:05;2.10;;;1.60;;
13234;SDS011;6683;48.506;9.050;2023-08-06T00:56:07;1.80;;;1.70;;
13234;SDS011;6683;48.506;9.050;2023-08-06T00:59:10;2.20;;;2.00;;
13234;SDS011;6683;48.506;9.050;2023-08-06T01:02:13;2.83;;;2.10;;
13234;SDS011;6683;48.506;9.050;2023-08-06T01:05:17;2.93;;;1.67;;
13234;SDS011;6683;48.506;9.050;2023-08-06T01:08:28;2.23;;;1.53;;
13234;SDS011;6683;48.506;9.050;2023-08-06T01:11:42;1.77;;;1.60;;
13234;SDS011;6683;48.506;9.050;2023-08-06T01:14:57;3.60;;;1.60;;
13234;SDS011;6683;48.506;9.050;2023-08-06T01:18:08;1.70;;;1.60;;
13234;SDS011;6683;48.506;9.050;2023-08-06T01:21:13;2.53;;;1.57;;
13234;SDS011;6683;48.506;9.050;2023-08-06T01:24:15;2.33;;;1.60;;
13234;SDS011;6683;48.506;9.050;2023-08-06T01:27:19;1.80;;;1.60;;
13234;SDS011;6683;48.506;9.050;2023-08-06T01:30:30;1.50;;;1.40;;
13234;SDS011;6683;48.506;9.050;2023-08-06T01:33:37;1.37;;;1.27;;
13234;SDS011;6683;48.506;9.050;2023-08-06T01:36:47;2.13;;;1.70;;
13234;SDS011;6683;48.506;9.050;2023-08-06T01:39:49;2.23;;;1.40;;
13234;SDS011;6683;48.506;9.050;2023-08-06T01:42:51;1.87;;;1.47;;
13234;SDS011;6683;48.506;9.050;2023-08-06T01:45:54;2.63;;;1.30;;
13234;SDS011;6683;48.506;9.050;2023-08-06T01:48:56;1.87;;;1.40;;
13234;SDS011;6683;48.506;9.050;2023-08-06T01:51:59;1.37;;;1.27;;
13234;SDS011;6683;48.506;9.050;2023-08-06T01:55:02;3.17;;;1.33;;
13234;SDS011;6683;48.506;9.050;2023-08-06T01:58:04;1.40;;;1.20;;
13234;SDS011;6683;48.506;9.050;2023-08-06T02:01:07;1.73;;;1.30;;
13234;SDS011;6683;48.506;9.050;2023-08-06T02:04:09;1.70;;;1.43;;
13234;SDS011;6683;48.506;9.050;2023-08-06T02:07:12;3.73;;;1.27;;
13234;SDS011;6683;48.506;9.050;2023-08-06T02:10:14;1.50;;;1.40;;
13234;SDS011;6683;48.506;9.050;2023-08-06T02:13:17;3.30;;;1.50;;
13234;SDS011;6683;48.506;9.050;2023-08-06T02:16:19;2.17;;;1.60;;
13234;SDS011;6683;48.506;9.050;2023-08-06T02:19:21;2.83;;;1.50;;
13234;SDS011;6683;48.506;9.050;2023-08-06T02:22:25;3.07;;;1.30;;
13234;SDS011;6683;48.506;9.050;2023-08-06T02:25:27;1.97;;;1.73;;
13234;SDS011;6683;48.506;9.050;2023-08-06T02:28:29;1.50;;;1.40;;
13234;SDS011;6683;48.506;9.050;2023-08-06T02:31:31;1.47;;;1.30;;
13234;SDS011;6683;48.506;9.050;2023-08-06T02:34:33;2.37;;;1.27;;
13234;SDS011;6683;48.506;9.050;2023-08-06T02:37:37;1.37;;;1.27;;
13234;SDS011;6683;48.506;9.050;2023-08-06T02:40:42;1.67;;;1.40;;
13234;SDS011;6683;48.506;9.050;2023-08-06T02:43:45;3.27;;;1.43;;
13234;SDS011;6683;48.506;9.050;2023-08-06T02:46:47;1.40;;;1.20;;
13234;SDS011;6683;48.506;9.050;2023-08-06T02:49:50;2.97;;;1.53;;
13234;SDS011;6683;48.506;9.050;2023-08-06T02:52:53;4.00;;;1.60;;
13234;SDS011;6683;48.506;9.050;2023-08-06T02:55:55;1.47;;;1.37;;
13234;SDS011;6683;48.506;9.050;2023-08-06T02:58:58;2.00;;;1.80;;
13234;SDS011;6683;48.506;9.050;2023-08-06T03:02:01;1.73;;;1.60;;
13234;SDS011;6683;48.506;9.050;2023-08-06T03:05:03;1.53;;;1.43;;
13234;SDS011;6683;48.506;9.050;2023-08-06T03:08:07;3.07;;;1.70;;
13234;SDS011;6683;48.506;9.050;2023-08-06T03:11:09;2.17;;;1.77;;
13234;SDS011;6683;48.506;9.050;2023-08-06T03:14:11;4.77;;;1.73;;
13234;SDS011;6683;48.506;9.050;2023-08-06T03:17:14;2.17;;;1.60;;
13234;SDS011;6683;48.506;9.050;2023-08-06T03:20:16;1.97;;;1.60;;
13234;SDS011;6683;48.506;9.050;2023-08-06T03:23:19;2.27;;;1.30;;
13234;SDS011;6683;48.506;9.050;2023-08-06T03:26:22;1.70;;;1.43;;
13234;SDS011;6683;48.506;9.050;2023-08-06T03:29:24;1.70;;;1.30;;
13234;SDS011;6683;48.506;9.050;2023-08-06T03:32:26;2.37;;;1.30;;
13234;SDS011;6683;48.506;9.050;2023-08-06T03:35:28;3.13;;;1.47;;
13234;SDS011;6683;48.506;9.050;2023-08-06T03:38:31;2.70;;;1.60;;
13234;SDS011;6683;48.506;9.050;2023-08-06T03:41:33;3.27;;;1.70;;
13234;SDS011;6683;48.506;9.050;2023-08-06T03:44:36;1.60;;;1.50;;
13234;SDS011;6683;48.506;9.050;2023-08-06T03:47:39;1.90;;;1.70;;
13234;SDS011;6683;48.506;9.050;2023-08-06T03:50:42;2.50;;;1.57;;
13234;SDS011;6683;48.506;9.050;2023-08-06T03:53:45;1.87;;;1.53;;
13234;SDS011;6683;48.506;9.050;2023-08-06T03:56:47;1.97;;;1.60;;
13234;SDS011;6683;48.506;9.050;2023-08-06T03:59:49;1.30;;;1.20;;
13234;SDS011;6683;48.506;9.050;2023-08-06T04:02:51;1.30;;;1.17;;
13234;SDS011;6683;48.506;9.050;2023-08-06T04:05:53;3.07;;;1.63;;
13234;SDS011;6683;48.506;9.050;2023-08-06T04:08:57;1.37;;;1.13;;
13234;SDS011;6683;48.506;9.050;2023-08-06T04:11:59;2.10;;;1.10;;
13234;SDS011;6683;48.506;9.050;2023-08-06T04:15:03;2.80;;;1.20;;
13234;SDS011;6683;48.506;9.050;2023-08-06T04:18:06;2.10;;;0.90;;
13234;SDS011;6683;48.506;9.050;2023-08-06T04:21:08;2.13;;;0.73;;
13234;SDS011;6683;48.506;9.050;2023-08-06T04:24:11;1.63;;;0.60;;
13234;SDS011;6683;48.506;9.050;2023-08-06T04:27:14;0.70;;;0.70;;
13234;SDS011;6683;48.506;9.050;2023-08-06T04:30:16;2.00;;;0.67;;
13234;SDS011;6683;48.506;9.050;2023-08-06T04:33:19;0.73;;;0.63;;
13234;SDS011;6683;48.506;9.050;2023-08-06T04:36:21;0.67;;;0.60;;
13234;SDS011;6683;48.506;9.050;2023-08-06T04:39:25;2.37;;;0.80;;
13234;SDS011;6683;48.506;9.050;2023-08-06T04:42:27;2.03;;;0.80;;
13234;SDS011;6683;48.506;9.050;2023-08-06T04:45:29;1.87;;;0.77;;
13234;SDS011;6683;48.506;9.050;2023-08-06T04:48:31;0.90;;;0.67;;
13234;SDS011;6683;48.506;9.050;2023-08-06T04:51:33;2.13;;;1.00;;
13234;SDS011;6683;48.506;9.050;2023-08-06T04:54:37;1.20;;;0.70;;
13234;SDS011;6683;48.506;9.050;2023-08-06T04:57:39;1.67;;;0.67;;
13234;SDS011;6683;48.506;9.050;2023-08-06T05:00:41;1.00;;;0.90;;
13234;SDS011;6683;48.506;9.050;2023-08-06T05:03:43;1.43;;;0.80;;
13234;SDS011;6683;48.506;9.050;2023-08-06T05:06:46;1.37;;;0.60;;
13234;SDS011;6683;48.506;9.050;2023-08-06T05:09:50;1.00;;;0.70;;
13234;SDS011;6683;48.506;9.050;2023-08-06T05:12:52;0.90;;;0.70;;
13234;SDS011;6683;48.506;9.050;2023-08-06T05:15:55;1.13;;;0.57;;
13234;SDS011;6683;48.506;9.050;2023-08-06T05:18:57;1.53;;;0.77;;
13234;SDS011;6683;48.506;9.050;2023-08-06T05:21:59;1.40;;;0.80;;
13234;SDS011;6683;48.506;9.050;2023-08-06T05:25:03;1.90;;;0.60;;
13234;SDS011;6683;48.506;9.050;2023-08-06T05:28:07;5.10;;;0.70;;
13234;SDS011;6683;48.506;9.050;2023-08-06T05:31:09;0.53;;;0.50;;
13234;SDS011;6683;48.506;9.050;2023-08-06T05:34:11;1.03;;;0.60;;
13234;SDS011;6683;48.506;9.050;2023-08-06T05:37:13;1.30;;;0.67;;
13234;SDS011;6683;48.506;9.050;2023-08-06T05:40:17;1.37;;;0.60;;
13234;SDS011;6683;48.506;9.050;2023-08-06T05:43:19;1.03;;;0.60;;
13234;SDS011;6683;48.506;9.050;2023-08-06T05:46:21;2.37;;;0.70;;
13234;SDS011;6683;48.506;9.050;2023-08-06T05:49:23;2.77;;;0.77;;
13234;SDS011;6683;48.506;9.050;2023-08-06T05:52:26;0.87;;;0.60;;
13234;SDS011;6683;48.506;9.050;2023-08-06T05:55:29;1.27;;;0.60;;
13234;SDS011;6683;48.506;9.050;2023-08-06T05:58:32;1.43;;;0.60;;
13234;SDS011;6683;48.506;9.050;2023-08-06T06:01:34;1.50;;;0.60;;
13234;SDS011;6683;48.506;9.050;2023-08-06T06:04:36;1.13;;;0.50;;
13234;SDS011;6683;48.506;9.050;2023-08-06T06:07:39;0.90;;;0.60;;
13234;SDS011;6683;48.506;9.050;2023-08-06T06:10:42;0.97;;;0.57;;
13234;SDS011;6683;48.506;9.050;2023-08-06T06:13:44;1.20;;;0.63;;
13234;SDS011;6683;48.506;9.050;2023-08-06T06:16:46;0.83;;;0.60;;
13234;SDS011;6683;48.506;9.050;2023-08-06T06:19:48;0.80;;;0.60;;
13234;SDS011;6683;48.506;9.050;2023-08-06T06:22:50;0.60;;;0.40;;
13234;SDS011;6683;48.506;9.050;2023-08-06T06:25:54;1.00;;;0.40;;
13234;SDS011;6683;48.506;9.050;2023-08-06T06:28:56;0.80;;;0.50;;
13234;SDS011;6683;48.506;9.050;2023-08-06T06:31:58;2.17;;;0.50;;
13234;SDS011;6683;48.506;9.050;2023-08-06T06:35:00;1.13;;;0.57;;
13234;SDS011;6683;48.506;9.050;2023-08-06T06:38:02;1.17;;;0.50;;
13234;SDS011;6683;48.506;9.050;2023-08-06T06:41:06;1.33;;;0.50;;
13234;SDS011;6683;48.506;9.050;2023-08-06T06:44:08;0.40;;;0.40;;
13234;SDS011;6683;48.506;9.050;2023-08-06T06:47:10;0.57;;;0.50;;
13234;SDS011;6683;48.506;9.050;2023-08-06T06:50:12;0.77;;;0.40;;
13234;SDS011;6683;48.506;9.050;2023-08-06T06:53:14;0.93;;;0.30;;
13234;SDS011;6683;48.506;9.050;2023-08-06T06:56:18;0.80;;;0.50;;
13234;SDS011;6683;48.506;9.050;2023-08-06T06:59:20;0.70;;;0.50;;
13234;SDS011;6683;48.506;9.050;2023-08-06T07:02:22;0.87;;;0.40;;
13234;SDS011;6683;48.506;9.050;2023-08-06T07:05:24;2.37;;;0.50;;
13234;SDS011;6683;48.506;9.050;2023-08-06T07:08:26;0.30;;;0.30;;
13234;SDS011;6683;48.506;9.050;2023-08-06T07:11:29;0.40;;;0.30;;
13234;SDS011;6683;48.506;9.050;2023-08-06T07:14:31;4.23;;;0.40;;
13234;SDS011;6683;48.506;9.050;2023-08-06T07:17:34;2.00;;;0.40;;
13234;SDS011;6683;48.506;9.050;2023-08-06T07:20:36;1.00;;;0.40;;
13234;SDS011;6683;48.506;9.050;2023-08-06T07:23:38;0.50;;;0.30;;
13234;SDS011;6683;48.506;9.050;2023-08-06T07:26:41;0.67;;;0.33;;
13234;SDS011;6683;48.506;9.050;2023-08-06T07:29:43;0.57;;;0.30;;
13234;SDS011;6683;48.506;9.050;2023-08-06T07:32:45;0.80;;;0.30;;
13234;SDS011;6683;48.506;9.050;2023-08-06T07:35:47;0.30;;;0.20;;
13234;SDS011;6683;48.506;9.050;2023-08-06T07:38:50;0.77;;;0.20;;
13234;SDS011;6683;48.506;9.050;2023-08-06T07:41:57;0.30;;;0.20;;
13234;SDS011;6683;48.506;9.050;2023-08-06T07:44:59;0.90;;;0.40;;
13234;SDS011;6683;48.506;9.050;2023-08-06T07:48:01;0.77;;;0.37;;
13234;SDS011;6683;48.506;9.050;2023-08-06T07:51:03;0.50;;;0.20;;
13234;SDS011;6683;48.506;9.050;2023-08-06T07:54:06;0.70;;;0.40;;
13234;SDS011;6683;48.506;9.050;2023-08-06T07:57:09;1.03;;;0.30;;
13234;SDS011;6683;48.506;9.050;2023-08-06T08:00:12;0.20;;;0.20;;
13234;SDS011;6683;48.506;9.050;2023-08-06T08:03:14;0.80;;;0.40;;
13234;SDS011;6683;48.506;9.050;2023-08-06T08:06:17;0.33;;;0.20;;
13234;SDS011;6683;48.506;9.050;2023-08-06T08:09:19;0.37;;;0.20;;
13234;SDS011;6683;48.506;9.050;2023-08-06T08:12:22;0.30;;;0.20;;
13234;SDS011;6683;48.506;9.050;2023-08-06T08:15:24;0.37;;;0.30;;
13234;SDS011;6683;48.506;9.050;2023-08-06T08:18:27;0.30;;;0.23;;
13234;SDS011;6683;48.506;9.050;2023-08-06T08:21:31;0.30;;;0.20;;
13234;SDS011;6683;48.506;9.050;2023-08-06T08:24:33;0.30;;;0.20;;
13234;SDS011;6683;48.506;9.050;2023-08-06T08:27:37;0.20;;;0.20;;
13234;SDS011;6683;48.506;9.050;2023-08-06T08:30:40;1.23;;;0.20;;
13234;SDS011;6683;48.506;9.050;2023-08-06T08:33:42;0.30;;;0.30;;
13234;SDS011;6683;48.506;9.050;2023-08-06T08:36:44;0.43;;;0.30;;
13234;SDS011;6683;48.506;9.050;2023-08-06T08:39:47;0.47;;;0.30;;
13234;SDS011;6683;48.506;9.050;2023-08-06T08:42:50;0.40;;;0.23;;
13234;SDS011;6683;48.506;9.050;2023-08-06T08:45:53;0.33;;;0.20;;
13234;SDS011;6683;48.506;9.050;2023-08-06T08:48:58;0.60;;;0.30;;
13234;SDS011;6683;48.506;9.050;2023-08-06T08:52:01;0.30;;;0.30;;
13234;SDS011;6683;48.506;9.050;2023-08-06T08:55:06;0.47;;;0.20;;
13234;SDS011;6683;48.506;9.050;2023-08-06T08:58:11;0.20;;;0.20;;
13234;SDS011;6683;48.506;9.050;2023-08-06T09:01:14;1.10;;;0.20;;
13234;SDS011;6683;48.506;9.050;2023-08-06T09:04:17;0.20;;;0.20;;
13234;SDS011;6683;48.506;9.050;2023-08-06T09:07:19;0.20;;;0.20;;
13234;SDS011;6683;48.506;9.050;2023-08-06T09:10:23;0.30;;;0.20;;
13234;SDS011;6683;48.506;9.050;2023-08-06T09:13:27;0.20;;;0.20;;
13234;SDS011;6683;48.506;9.050;2023-08-06T09:16:29;0.93;;;0.20;;
13234;SDS011;6683;48.506;9.050;2023-08-06T09:19:31;0.20;;;0.20;;
13234;SDS011;6683;48.506;9.050;2023-08-06T09:22:34;0.37;;;0.20;;
13234;SDS011;6683;48.506;9.050;2023-08-06T09:25:37;0.20;;;0.20;;
13234;SDS011;6683;48.506;9.050;2023-08-06T09:28:42;0.20;;;0.20;;
13234;SDS011;6683;48.506;9.050;2023-08-06T09:31:45;0.40;;;0.23;;
13234;SDS011;6683;48.506;9.050;2023-08-06T09:34:48;0.20;;;0.20;;
13234;SDS011;6683;48.506;9.050;2023-08-06T09:38:04;0.90;;;0.50;;
13234;SDS011;6683;48.506;9.050;2023-08-06T09:41:08;0.20;;;0.20;;
13234;SDS011;6683;48.506;9.050;2023-08-06T09:47:31;0.20;;;0.20;;
13234;SDS011;6683;48.506;9.050;2023-08-06T09:50:34;0.27;;;0.20;;
13234;SDS011;6683;48.506;9.050;2023-08-06T09:53:39;0.20;;;0.20;;
13234;SDS011;6683;48.506;9.050;2023-08-06T09:56:43;0.87;;;0.60;;
13234;SDS011;6683;48.506;9.050;2023-08-06T09:59:46;1.17;;;0.40;;
13234;SDS011;6683;48.506;9.050;2023-08-06T10:02:49;1.57;;;0.30;;
13234;SDS011;6683;48.506;9.050;2023-08-06T10:05:55;0.50;;;0.20;;
13234;SDS011;6683;48.506;9.050;2023-08-06T10:08:57;2.70;;;0.30;;
13234;SDS011;6683;48.506;9.050;2023-08-06T10:12:00;0.23;;;0.20;;
13234;SDS011;6683;48.506;9.050;2023-08-06T10:15:04;1.17;;;0.30;;
13234;SDS011;6683;48.506;9.050;2023-08-06T10:18:12;0.27;;;0.20;;
13234;SDS011;6683;48.506;9.050;2023-08-06T10:21:18;0.87;;;0.20;;
13234;SDS011;6683;48.506;9.050;2023-08-06T10:24:21;0.77;;;0.20;;
13234;SDS011;6683;48.506;9.050;2023-08-06T10:27:28;0.20;;;0.17;;
13234;SDS011;6683;48.506;9.050;2023-08-06T10:30:34;0.20;;;0.20;;
13234;SDS011;6683;48.506;9.050;2023-08-06T10:33:44;1.13;;;0.20;;
13234;SDS011;6683;48.506;9.050;2023-08-06T10:36:48;0.20;;;0.13;;
13234;SDS011;6683;48.506;9.050;2023-08-06T10:39:50;0.23;;;0.20;;
13234;SDS011;6683;48.506;9.050;2023-08-06T10:42:53;0.30;;;0.27;;
13234;SDS011;6683;48.506;9.050;2023-08-06T10:45:57;0.20;;;0.20;;
13234;SDS011;6683;48.506;9.050;2023-08-06T10:49:00;0.60;;;0.30;;
13234;SDS011;6683;48.506;9.050;2023-08-06T10:52:03;0.20;;;0.20;;
13234;SDS011;6683;48.506;9.050;2023-08-06T10:55:06;0.20;;;0.10;;
13234;SDS011;6683;48.506;9.050;2023-08-06T10:58:10;0.20;;;0.20;;
13234;SDS011;6683;48.506;9.050;2023-08-06T11:01:18;0.20;;;0.20;;
13234;SDS011;6683;48.506;9.050;2023-08-06T11:04:20;0.40;;;0.30;;
13234;SDS011;6683;48.506;9.050;2023-08-06T11:07:23;0.70;;;0.20;;
13234;SDS011;6683;48.506;9.050;2023-08-06T11:10:28;0.63;;;0.40;;
13234;SDS011;6683;48.506;9.050;2023-08-06T11:13:31;0.50;;;0.30;;
13234;SDS011;6683;48.506;9.050;2023-08-06T11:16:34;0.33;;;0.30;;
13234;SDS011;6683;48.506;9.050;2023-08-06T11:19:37;0.20;;;0.20;;
13234;SDS011;6683;48.506;9.050;2023-08-06T11:22:39;0.20;;;0.20;;
13234;SDS011;6683;48.506;9.050;2023-08-06T11:25:43;0.50;;;0.30;;
13234;SDS011;6683;48.506;9.050;2023-08-06T11:28:46;0.63;;;0.30;;
13234;SDS011;6683;48.506;9.050;2023-08-06T11:31:49;0.50;;;0.20;;
13234;SDS011;6683;48.506;9.050;2023-08-06T11:34:52;0.30;;;0.20;;
13234;SDS011;6683;48.506;9.050;2023-08-06T11:37:55;0.30;;;0.20;;
13234;SDS011;6683;48.506;9.050;2023-08-06T11:40:57;0.20;;;0.10;;
13234;SDS011;6683;48.506;9.050;2023-08-06T11:44:00;0.77;;;0.30;;
13234;SDS011;6683;48.506;9.050;2023-08-06T11:47:05;0.20;;;0.10;;
13234;SDS011;6683;48.506;9.050;2023-08-06T11:50:07;0.43;;;0.20;;
13234;SDS011;6683;48.506;9.050;2023-08-06T11:53:11;0.27;;;0.10;;
13234;SDS011;6683;48.506;9.050;2023-08-06T11:56:15;0.40;;;0.20;;
13234;SDS011;6683;48.506;9.050;2023-08-06T11:59:17;0.20;;;0.10;;
13234;SDS011;6683;48.506;9.050;2023-08-06T12:02:24;0.37;;;0.20;;
13234;SDS011;6683;48.506;9.050;2023-08-06T12:05:29;0.40;;;0.33;;
13234;SDS011;6683;48.506;9.050;2023-08-06T12:08:33;0.40;;;0.30;;
13234;SDS011;6683;48.506;9.050;2023-08-06T12:11:35;0.60;;;0.20;;
13234;SDS011;6683;48.506;9.050;2023-08-06T12:14:37;0.40;;;0.30;;
13234;SDS011;6683;48.506;9.050;2023-08-06T12:17:41;0.37;;;0.30;;
13234;SDS011;6683;48.506;9.050;2023-08-06T12:20:43;0.50;;;0.30;;
13234;SDS011;6683;48.506;9.050;2023-08-06T12:23:45;0.40;;;0.40;;
13234;SDS011;6683;48.506;9.050;2023-08-06T12:26:48;0.50;;;0.40;;
13234;SDS011;6683;48.506;9.050;2023-08-06T12:29:50;0.40;;;0.40;;
13234;SDS011;6683;48.506;9.050;2023-08-06T12:32:54;0.87;;;0.50;;
13234;SDS011;6683;48.506;9.050;2023-08-06T12:35:56;0.93;;;0.80;;
13234;SDS011;6683;48.506;9.050;2023-08-06T12:38:59;0.63;;;0.63;;
13234;SDS011;6683;48.506;9.050;2023-08-06T12:42:01;1.67;;;0.43;;
13234;SDS011;6683;48.506;9.050;2023-08-06T12:45:05;0.60;;;0.50;;
13234;SDS011;6683;48.506;9.050;2023-08-06T12:48:09;0.53;;;0.53;;
13234;SDS011;6683;48.506;9.050;2023-08-06T12:51:11;0.50;;;0.50;;
13234;SDS011;6683;48.506;9.050;2023-08-06T12:54:14;0.50;;;0.50;;
13234;SDS011;6683;48.506;9.050;2023-08-06T12:57:17;0.60;;;0.50;;
13234;SDS011;6683;48.506;9.050;2023-08-06T13:00:19;0.60;;;0.53;;
13234;SDS011;6683;48.506;9.050;2023-08-06T13:03:23;0.47;;;0.47;;
13234;SDS011;6683;48.506;9.050;2023-08-06T13:06:25;0.60;;;0.60;;
13234;SDS011;6683;48.506;9.050;2023-08-06T13:09:27;0.53;;;0.50;;
13234;SDS011;6683;48.506;9.050;2023-08-06T13:12:29;0.47;;;0.40;;
13234;SDS011;6683;48.506;9.050;2023-08-06T13:15:31;0.67;;;0.40;;
13234;SDS011;6683;48.506;9.050;2023-08-06T13:18:35;0.40;;;0.40;;
13234;SDS011;6683;48.506;9.050;2023-08-06T13:21:59;0.90;;;0.50;;
13234;SDS011;6683;48.506;9.050;2023-08-06T13:25:04;0.70;;;0.50;;
13234;SDS011;6683;48.506;9.050;2023-08-06T13:28:06;0.40;;;0.40;;
13234;SDS011;6683;48.506;9.050;2023-08-06T13:31:08;0.50;;;0.50;;
13234;SDS011;6683;48.506;9.050;2023-08-06T13:34:12;0.40;;;0.40;;
13234;SDS011;6683;48.506;9.050;2023-08-06T13:37:14;0.50;;;0.40;;
13234;SDS011;6683;48.506;9.050;2023-08-06T13:40:16;0.30;;;0.30;;
13234;SDS011;6683;48.506;9.050;2023-08-06T13:43:18;0.40;;;0.40;;
13234;SDS011;6683;48.506;9.050;2023-08-06T13:46:20;0.40;;;0.40;;
13234;SDS011;6683;48.506;9.050;2023-08-06T13:49:24;0.40;;;0.40;;
13234;SDS011;6683;48.506;9.050;2023-08-06T13:52:26;0.30;;;0.30;;
13234;SDS011;6683;48.506;9.050;2023-08-06T13:55:28;0.40;;;0.40;;
13234;SDS011;6683;48.506;9.050;2023-08-06T13:58:30;0.90;;;0.40;;
13234;SDS011;6683;48.506;9.050;2023-08-06T14:01:33;0.47;;;0.47;;
13234;SDS011;6683;48.506;9.050;2023-08-06T14:04:36;1.40;;;0.40;;
13234;SDS011;6683;48.506;9.050;2023-08-06T14:07:39;0.33;;;0.30;;
13234;SDS011;6683;48.506;9.050;2023-08-06T14:10:42;0.93;;;0.40;;
13234;SDS011;6683;48.506;9.050;2023-08-06T14:13:44;0.40;;;0.37;;
13234;SDS011;6683;48.506;9.050;2023-08-06T14:16:46;0.40;;;0.30;;
13234;SDS011;6683;48.506;9.050;2023-08-06T14:19:49;0.60;;;0.40;;
13234;SDS011;6683;48.506;9.050;2023-08-06T14:22:51;0.60;;;0.40;;
13234;SDS011;6683;48.506;9.050;2023-08-06T14:25:53;1.03;;;0.60;;
13234;SDS011;6683;48.506;9.050;2023-08-06T14:28:55;0.40;;;0.40;;
13234;SDS011;6683;48.506;9.050;2023-08-06T14:31:57;0.63;;;0.50;;
13234;SDS011;6683;48.506;9.050;2023-08-06T14:35:01;0.70;;;0.40;;
13234;SDS011;6683;48.506;9.050;2023-08-06T14:38:03;1.17;;;0.33;;
13234;SDS011;6683;48.506;9.050;2023-08-06T14:41:05;0.30;;;0.30;;
13234;SDS011;6683;48.506;9.050;2023-08-06T14:44:07;0.30;;;0.30;;
13234;SDS011;6683;48.506;9.050;2023-08-06T14:47:09;0.60;;;0.50;;
13234;SDS011;6683;48.506;9.050;2023-08-06T14:50:13;0.80;;;0.40;;
13234;SDS011;6683;48.506;9.050;2023-08-06T14:53:15;0.40;;;0.40;;
13234;SDS011;6683;48.506;9.050;2023-08-06T14:56:17;0.30;;;0.30;;
13234;SDS011;6683;48.506;9.050;2023-08-06T14:59:19;0.20;;;0.20;;
13234;SDS011;6683;48.506;9.050;2023-08-06T15:02:21;0.30;;;0.30;;
13234;SDS011;6683;48.506;9.050;2023-08-06T15:05:25;1.23;;;0.30;;
13234;SDS011;6683;48.506;9.050;2023-08-06T15:08:27;0.30;;;0.30;;
13234;SDS011;6683;48.506;9.050;2023-08-06T15:11:29;1.07;;;0.30;;
13234;SDS011;6683;48.506;9.050;2023-08-06T15:14:31;1.30;;;0.40;;
13234;SDS011;6683;48.506;9.050;2023-08-06T15:17:34;0.83;;;0.43;;
13234;SDS011;6683;48.506;9.050;2023-08-06T15:20:37;0.30;;;0.30;;
13234;SDS011;6683;48.506;9.050;2023-08-06T15:23:39;2.07;;;0.40;;
13234;SDS011;6683;48.506;9.050;2023-08-06T15:26:41;0.40;;;0.37;;
13234;SDS011;6683;48.506;9.050;2023-08-06T15:29:43;0.60;;;0.50;;
13234;SDS011;6683;48.506;9.050;2023-08-06T15:32:45;0.93;;;0.50;;
13234;SDS011;6683;48.506;9.050;2023-08-06T15:35:49;0.50;;;0.50;;
13234;SDS011;6683;48.506;9.050;2023-08-06T15:38:51;0.70;;;0.53;;
13234;SDS011;6683;48.506;9.050;2023-08-06T15:41:53;0.50;;;0.50;;
13234;SDS011;6683;48.506;9.050;2023-08-06T15:44:55;1.20;;;0.70;;
13234;SDS011;6683;48.506;9.050;2023-08-06T15:47:57;0.63;;;0.57;;
13234;SDS011;6683;48.506;9.050;2023-08-06T15:51:01;1.60;;;0.50;;
13234;SDS011;6683;48.506;9.050;2023-08-06T15:54:03;0.40;;;0.40;;
13234;SDS011;6683;48.506;9.050;2023-08-06T15:57:05;0.73;;;0.67;;
13234;SDS011;6683;48.506;9.050;2023-08-06T16:00:08;0.70;;;0.60;;
13234;SDS011;6683;48.506;9.050;2023-08-06T16:03:11;0.60;;;0.50;;
13234;SDS011;6683;48.506;9.050;2023-08-06T16:06:15;0.50;;;0.50;;
13234;SDS011;6683;48.506;9.050;2023-08-06T16:09:17;1.00;;;0.70;;
13234;SDS011;6683;48.506;9.050;2023-08-06T16:12:22;0.90;;;0.80;;
13234;SDS011;6683;48.506;9.050;2023-08-06T16:15:25;0.77;;;0.60;;
13234;SDS011;6683;48.506;9.050;2023-08-06T16:18:27;0.77;;;0.47;;
13234;SDS011;6683;48.506;9.050;2023-08-06T16:21:30;0.53;;;0.50;;
13234;SDS011;6683;48.506;9.050;2023-08-06T16:24:33;0.50;;;0.50;;
13234;SDS011;6683;48.506;9.050;2023-08-06T16:27:35;0.40;;;0.40;;
13234;SDS011;6683;48.506;9.050;2023-08-06T16:30:42;0.50;;;0.50;;
13234;SDS011;6683;48.506;9.050;2023-08-06T16:33:45;0.87;;;0.53;;
13234;SDS011;6683;48.506;9.050;2023-08-06T16:36:49;0.60;;;0.50;;
13234;SDS011;6683;48.506;9.050;2023-08-06T16:39:51;1.40;;;0.63;;
13234;SDS011;6683;48.506;9.050;2023-08-06T16:42:53;0.60;;;0.60;;
13234;SDS011;6683;48.506;9.050;2023-08-06T16:45:56;0.60;;;0.40;;
13234;SDS011;6683;48.506;9.050;2023-08-06T16:48:58;0.77;;;0.60;;
13234;SDS011;6683;48.506;9.050;2023-08-06T16:52:01;0.80;;;0.50;;
13234;SDS011;6683;48.506;9.050;2023-08-06T16:55:04;0.60;;;0.40;;
13234;SDS011;6683;48.506;9.050;2023-08-06T16:58:07;0.70;;;0.60;;
13234;SDS011;6683;48.506;9.050;2023-08-06T17:01:09;0.60;;;0.40;;
13234;SDS011;6683;48.506;9.050;2023-08-06T17:04:11;0.70;;;0.50;;
13234;SDS011;6683;48.506;9.050;2023-08-06T17:07:15;0.73;;;0.60;;
13234;SDS011;6683;48.506;9.050;2023-08-06T17:10:17;0.60;;;0.60;;
13234;SDS011;6683;48.506;9.050;2023-08-06T17:13:20;1.13;;;0.47;;
13234;SDS011;6683;48.506;9.050;2023-08-06T17:16:23;0.80;;;0.50;;
13234;SDS011;6683;48.506;9.050;2023-08-06T17:19:25;0.50;;;0.50;;
13234;SDS011;6683;48.506;9.050;2023-08-06T17:22:28;0.60;;;0.60;;
13234;SDS011;6683;48.506;9.050;2023-08-06T17:25:30;0.90;;;0.60;;
13234;SDS011;6683;48.506;9.050;2023-08-06T17:28:34;0.60;;;0.50;;
13234;SDS011;6683;48.506;9.050;2023-08-06T17:31:36;0.93;;;0.40;;
13234;SDS011;6683;48.506;9.050;2023-08-06T17:34:39;0.73;;;0.60;;
13234;SDS011;6683;48.506;9.050;2023-08-06T17:37:42;3.30;;;1.07;;
13234;SDS011;6683;48.506;9.050;2023-08-06T17:40:44;0.80;;;0.60;;
13234;SDS011;6683;48.506;9.050;2023-08-06T17:43:46;0.77;;;0.60;;
13234;SDS011;6683;48.506;9.050;2023-08-06T17:46:48;0.97;;;0.53;;
13234;SDS011;6683;48.506;9.050;2023-08-06T17:49:50;0.70;;;0.70;;
13234;SDS011;6683;48.506;9.050;2023-08-06T17:52:54;2.20;;;0.80;;
13234;SDS011;6683;48.506;9.050;2023-08-06T17:55:56;1.00;;;0.60;;
13234;SDS011;6683;48.506;9.050;2023-08-06T17:59:00;0.70;;;0.70;;
13234;SDS011;6683;48.506;9.050;2023-08-06T18:02:03;0.87;;;0.70;;
13234;SDS011;6683;48.506;9.050;2023-08-06T18:05:06;1.50;;;0.90;;
13234;SDS011;6683;48.506;9.050;2023-08-06T18:08:11;1.07;;;0.63;;
13234;SDS011;6683;48.506;9.050;2023-08-06T18:11:13;0.87;;;0.70;;
13234;SDS011;6683;48.506;9.050;2023-08-06T18:14:17;0.73;;;0.60;;
13234;SDS011;6683;48.506;9.050;2023-08-06T18:17:20;1.70;;;0.90;;
13234;SDS011;6683;48.506;9.050;2023-08-06T18:20:22;1.67;;;0.70;;
13234;SDS011;6683;48.506;9.050;2023-08-06T18:23:25;1.03;;;0.70;;
13234;SDS011;6683;48.506;9.050;2023-08-06T18:26:27;1.00;;;0.80;;
13234;SDS011;6683;48.506;9.050;2023-08-06T18:29:29;1.00;;;0.80;;
13234;SDS011;6683;48.506;9.050;2023-08-06T18:32:32;1.07;;;0.80;;
13234;SDS011;6683;48.506;9.050;2023-08-06T18:35:34;2.60;;;0.80;;
13234;SDS011;6683;48.506;9.050;2023-08-06T18:38:39;0.90;;;0.80;;
13234;SDS011;6683;48.506;9.050;2023-08-06T18:41:42;1.90;;;0.83;;